sensor_id;sensor_type;location;lat;lon;timestamp;pressure;altitude;pressure_sealevel;temperature
19948;BMP180;10135;50.702;7.276;2023-04-03T05:00:44;100651.00;;;7.10
19948;BMP180;10135;50.702;7.276;2023-04-03T05:02:45;100655.00;;;7.10
19948;BMP180;10135;50.702;7.276;2023-04-03T05:04:45;100655.00;;;7.00
19948;BMP180;10135;50.702;7.276;2023-04-03T05:06:46;100649.00;;;7.00
19948;BMP180;10135;50.702;7.276;2023-04-03T05:08:46;100650.00;;;7.00
19948;BMP180;10135;50.702;7.276;2023-04-03T05:10:48;100660.00;;;7.00
19948;BMP180;10135;50.702;7.276;2023-04-03T05:12:48;100657.00;;;7.00
19948;BMP180;10135;50.702;7.276;2023-04-03T05:14:49;100663.00;;;7.00
19948;BMP180;10135;50.702;7.276;2023-04-03T05:16:50;100664.00;;;7.00
19948;BMP180;10135;50.702;7.276;2023-04-03T05:18:54;100659.00;;;7.00
19948;BMP180;10135;50.702;7.276;2023-04-03T05:20:54;100670.00;;;7.00
19948;BMP180;10135;50.702;7.276;2023-04-03T05:22:55;100668.00;;;7.00
19948;BMP180;10135;50.702;7.276;2023-04-03T05:24:56;100668.00;;;7.00
19948;BMP180;10135;50.702;7.276;2023-04-03T05:26:56;100671.00;;;7.00
19948;BMP180;10135;50.702;7.276;2023-04-03T05:28:57;100676.00;;;7.00
19948;BMP180;10135;50.702;7.276;2023-04-03T05:30:59;100678.00;;;7.00
19948;BMP180;10135;50.702;7.276;2023-04-03T05:33:00;100673.00;;;7.00
19948;BMP180;10135;50.702;7.276;2023-04-03T05:35:01;100673.00;;;7.10
19948;BMP180;10135;50.702;7.276;2023-04-03T05:37:01;100675.00;;;7.10
19948;BMP180;10135;50.702;7.276;2023-04-03T05:39:03;100676.00;;;7.10
19948;BMP180;10135;50.702;7.276;2023-04-03T05:41:04;100681.00;;;7.10
19948;BMP180;10135;50.702;7.276;2023-04-03T05:43:05;100679.00;;;7.10
19948;BMP180;10135;50.702;7.276;2023-04-03T05:45:06;100682.00;;;7.20
19948;BMP180;10135;50.702;7.276;2023-04-03T05:47:07;100693.00;;;7.20
19948;BMP180;10135;50.702;7.276;2023-04-03T05:49:07;100694.00;;;7.30
19948;BMP180;10135;50.702;7.276;2023-04-03T05:51:20;100697.00;;;7.20
19948;BMP180;10135;50.702;7.276;2023-04-03T05:53:27;100694.00;;;7.30
19948;BMP180;10135;50.702;7.276;2023-04-03T05:55:28;100698.00;;;7.30
19948;BMP180;10135;50.702;7.276;2023-04-03T05:57:29;100697.00;;;7.40
19948;BMP180;10135;50.702;7.276;2023-04-03T05:59:30;100693.00;;;7.40
19948;BMP180;10135;50.702;7.276;2023-04-03T06:01:30;100696.00;;;7.50
19948;BMP180;10135;50.702;7.276;2023-04-03T06:03:31;100704.00;;;7.60
19948;BMP180;10135;50.702;7.276;2023-04-03T06:05:32;100701.00;;;7.80
19948;BMP180;10135;50.702;7.276;2023-04-03T06:07:33;100711.00;;;8.10
19948;BMP180;10135;50.702;7.276;2023-04-03T06:09:33;100709.00;;;8.50
19948;BMP180;10135;50.702;7.276;2023-04-03T06:11:34;100709.00;;;9.00
19948;BMP180;10135;50.702;7.276;2023-04-03T06:13:35;100706.00;;;9.70
19948;BMP180;10135;50.702;7.276;2023-04-03T06:15:36;100708.00;;;10.50
19948;BMP180;10135;50.702;7.276;2023-04-03T06:17:38;100706.00;;;11.40
19948;BMP180;10135;50.702;7.276;2023-04-03T06:19:39;100715.00;;;12.20
19948;BMP180;10135;50.702;7.276;2023-04-03T06:21:40;100708.00;;;12.80
19948;BMP180;10135;50.702;7.276;2023-04-03T06:23:40;100715.00;;;13.50
19948;BMP180;10135;50.702;7.276;2023-04-03T06:25:42;100716.00;;;14.10
19948;BMP180;10135;50.702;7.276;2023-04-03T06:27:43;100709.00;;;14.60
19948;BMP180;10135;50.702;7.276;2023-04-03T06:29:43;100710.00;;;15.00
19948;BMP180;10135;50.702;7.276;2023-04-03T06:31:46;100712.00;;;15.40
19948;BMP180;10135;50.702;7.276;2023-04-03T06:33:47;100708.00;;;15.70
19948;BMP180;10135;50.702;7.276;2023-04-03T06:35:47;100706.00;;;16.00
19948;BMP180;10135;50.702;7.276;2023-04-03T06:37:48;100697.00;;;16.20
19948;BMP180;10135;50.702;7.276;2023-04-03T06:39:49;100700.00;;;16.60
19948;BMP180;10135;50.702;7.276;2023-04-03T06:41:50;100701.00;;;17.00
19948;BMP180;10135;50.702;7.276;2023-04-03T06:43:51;100708.00;;;17.30
19948;BMP180;10135;50.702;7.276;2023-04-03T06:45:52;100708.00;;;17.40
19948;BMP180;10135;50.702;7.276;2023-04-03T06:47:53;100709.00;;;17.50
19948;BMP180;10135;50.702;7.276;2023-04-03T06:49:54;100711.00;;;17.50
19948;BMP180;10135;50.702;7.276;2023-04-03T06:51:55;100710.00;;;17.60
19948;BMP180;10135;50.702;7.276;2023-04-03T06:53:58;100709.00;;;17.60
19948;BMP180;10135;50.702;7.276;2023-04-03T06:55:59;100713.00;;;17.60
19948;BMP180;10135;50.702;7.276;2023-04-03T06:58:00;100714.00;;;17.50
19948;BMP180;10135;50.702;7.276;2023-04-03T07:00:03;100713.00;;;17.50
19948;BMP180;10135;50.702;7.276;2023-04-03T07:02:04;100716.00;;;17.30
19948;BMP180;10135;50.702;7.276;2023-04-03T07:04:05;100712.00;;;17.00
19948;BMP180;10135;50.702;7.276;2023-04-03T07:06:10;100713.00;;;16.70
19948;BMP180;10135;50.702;7.276;2023-04-03T07:08:11;100722.00;;;16.40
19948;BMP180;10135;50.702;7.276;2023-04-03T07:10:11;100715.00;;;16.20
19948;BMP180;10135;50.702;7.276;2023-04-03T07:12:12;100718.00;;;16.10
19948;BMP180;10135;50.702;7.276;2023-04-03T07:14:13;100720.00;;;16.00
19948;BMP180;10135;50.702;7.276;2023-04-03T07:16:14;100715.00;;;15.90
19948;BMP180;10135;50.702;7.276;2023-04-03T07:18:14;100716.00;;;15.90
19948;BMP180;10135;50.702;7.276;2023-04-03T07:20:15;100713.00;;;15.90
19948;BMP180;10135;50.702;7.276;2023-04-03T07:22:16;100721.00;;;15.90
19948;BMP180;10135;50.702;7.276;2023-04-03T07:24:17;100724.00;;;16.00
19948;BMP180;10135;50.702;7.276;2023-04-03T07:26:17;100726.00;;;16.10
19948;BMP180;10135;50.702;7.276;2023-04-03T07:28:19;100724.00;;;16.10
19948;BMP180;10135;50.702;7.276;2023-04-03T07:30:20;100721.00;;;16.00
19948;BMP180;10135;50.702;7.276;2023-04-03T07:32:21;100728.00;;;15.80
19948;BMP180;10135;50.702;7.276;2023-04-03T07:34:22;100723.00;;;15.70
19948;BMP180;10135;50.702;7.276;2023-04-03T07:36:23;100727.00;;;15.60
19948;BMP180;10135;50.702;7.276;2023-04-03T07:38:24;100722.00;;;15.50
19948;BMP180;10135;50.702;7.276;2023-04-03T07:40:26;100731.00;;;15.50
19948;BMP180;10135;50.702;7.276;2023-04-03T07:42:26;100735.00;;;15.50
19948;BMP180;10135;50.702;7.276;2023-04-03T07:44:28;100728.00;;;15.40
19948;BMP180;10135;50.702;7.276;2023-04-03T07:46:29;100733.00;;;15.30
19948;BMP180;10135;50.702;7.276;2023-04-03T07:48:30;100727.00;;;15.20
19948;BMP180;10135;50.702;7.276;2023-04-03T07:50:30;100737.00;;;15.10
19948;BMP180;10135;50.702;7.276;2023-04-03T07:52:32;100727.00;;;15.00
19948;BMP180;10135;50.702;7.276;2023-04-03T07:54:33;100726.00;;;14.90
19948;BMP180;10135;50.702;7.276;2023-04-03T07:56:34;100731.00;;;14.80
19948;BMP180;10135;50.702;7.276;2023-04-03T07:58:35;100734.00;;;14.70
19948;BMP180;10135;50.702;7.276;2023-04-03T08:00:37;100740.00;;;14.70
19948;BMP180;10135;50.702;7.276;2023-04-03T08:02:38;100734.00;;;14.80
19948;BMP180;10135;50.702;7.276;2023-04-03T08:04:38;100734.00;;;14.90
19948;BMP180;10135;50.702;7.276;2023-04-03T08:06:40;100740.00;;;14.90
19948;BMP180;10135;50.702;7.276;2023-04-03T08:08:40;100740.00;;;15.10
19948;BMP180;10135;50.702;7.276;2023-04-03T08:10:42;100739.00;;;15.20
19948;BMP180;10135;50.702;7.276;2023-04-03T08:12:46;100737.00;;;15.40
19948;BMP180;10135;50.702;7.276;2023-04-03T08:14:47;100746.00;;;15.40
19948;BMP180;10135;50.702;7.276;2023-04-03T08:16:48;100739.00;;;15.40
19948;BMP180;10135;50.702;7.276;2023-04-03T08:18:49;100733.00;;;15.30
19948;BMP180;10135;50.702;7.276;2023-04-03T08:20:51;100731.00;;;15.10
19948;BMP180;10135;50.702;7.276;2023-04-03T08:22:52;100747.00;;;15.00
19948;BMP180;10135;50.702;7.276;2023-04-03T08:24:53;100740.00;;;14.90
19948;BMP180;10135;50.702;7.276;2023-04-03T08:26:54;100749.00;;;14.80
19948;BMP180;10135;50.702;7.276;2023-04-03T08:28:55;100745.00;;;14.60
19948;BMP180;10135;50.702;7.276;2023-04-03T08:31:02;100750.00;;;14.50
19948;BMP180;10135;50.702;7.276;2023-04-03T08:33:03;100750.00;;;14.30
19948;BMP180;10135;50.702;7.276;2023-04-03T08:35:05;100750.00;;;14.20
19948;BMP180;10135;50.702;7.276;2023-04-03T08:37:06;100746.00;;;14.00
19948;BMP180;10135;50.702;7.276;2023-04-03T08:39:07;100758.00;;;14.00
19948;BMP180;10135;50.702;7.276;2023-04-03T08:41:20;100754.00;;;13.90
19948;BMP180;10135;50.702;7.276;2023-04-03T08:43:54;100756.00;;;13.80
19948;BMP180;10135;50.702;7.276;2023-04-03T08:46:03;100753.00;;;13.60
19948;BMP180;10135;50.702;7.276;2023-04-03T08:50:18;100763.00;;;13.40
19948;BMP180;10135;50.702;7.276;2023-04-03T08:52:40;100754.00;;;13.40
19948;BMP180;10135;50.702;7.276;2023-04-03T08:54:56;100755.00;;;13.40
19948;BMP180;10135;50.702;7.276;2023-04-03T08:56:59;100763.00;;;13.40
19948;BMP180;10135;50.702;7.276;2023-04-03T08:59:11;100764.00;;;13.40
19948;BMP180;10135;50.702;7.276;2023-04-03T09:01:40;100770.00;;;13.40
19948;BMP180;10135;50.702;7.276;2023-04-03T09:03:41;100763.00;;;13.30
19948;BMP180;10135;50.702;7.276;2023-04-03T09:05:55;100757.00;;;13.20
19948;BMP180;10135;50.702;7.276;2023-04-03T09:10:14;100767.00;;;13.00
19948;BMP180;10135;50.702;7.276;2023-04-03T09:12:26;100775.00;;;12.80
19948;BMP180;10135;50.702;7.276;2023-04-03T09:16:56;100773.00;;;12.60
19948;BMP180;10135;50.702;7.276;2023-04-03T09:21:31;100772.00;;;12.30
19948;BMP180;10135;50.702;7.276;2023-04-03T09:23:46;100771.00;;;12.20
19948;BMP180;10135;50.702;7.276;2023-04-03T09:25:51;100772.00;;;12.20
19948;BMP180;10135;50.702;7.276;2023-04-03T09:27:53;100772.00;;;12.10
19948;BMP180;10135;50.702;7.276;2023-04-03T09:29:57;100764.00;;;12.00
19948;BMP180;10135;50.702;7.276;2023-04-03T09:32:01;100772.00;;;12.00
19948;BMP180;10135;50.702;7.276;2023-04-03T09:34:15;100769.00;;;11.90
19948;BMP180;10135;50.702;7.276;2023-04-03T09:36:45;100770.00;;;11.80
19948;BMP180;10135;50.702;7.276;2023-04-03T09:38:45;100765.00;;;11.80
19948;BMP180;10135;50.702;7.276;2023-04-03T09:41:05;100778.00;;;11.70
19948;BMP180;10135;50.702;7.276;2023-04-03T09:43:31;100768.00;;;11.70
19948;BMP180;10135;50.702;7.276;2023-04-03T09:45:34;100766.00;;;11.70
19948;BMP180;10135;50.702;7.276;2023-04-03T09:47:36;100762.00;;;11.60
19948;BMP180;10135;50.702;7.276;2023-04-03T09:49:38;100772.00;;;11.60
19948;BMP180;10135;50.702;7.276;2023-04-03T09:51:38;100768.00;;;11.60
19948;BMP180;10135;50.702;7.276;2023-04-03T09:53:43;100766.00;;;11.60
19948;BMP180;10135;50.702;7.276;2023-04-03T09:55:45;100774.00;;;11.60
19948;BMP180;10135;50.702;7.276;2023-04-03T09:57:47;100771.00;;;11.60
19948;BMP180;10135;50.702;7.276;2023-04-03T10:00:01;100769.00;;;11.60
19948;BMP180;10135;50.702;7.276;2023-04-03T10:02:36;100755.00;;;11.60
19948;BMP180;10135;50.702;7.276;2023-04-03T10:04:41;100769.00;;;11.60
19948;BMP180;10135;50.702;7.276;2023-04-03T10:06:54;100761.00;;;11.60
19948;BMP180;10135;50.702;7.276;2023-04-03T10:11:21;100774.00;;;11.60
19948;BMP180;10135;50.702;7.276;2023-04-03T10:13:23;100770.00;;;11.60
19948;BMP180;10135;50.702;7.276;2023-04-03T10:15:27;100773.00;;;11.50
19948;BMP180;10135;50.702;7.276;2023-04-03T10:19:56;100766.00;;;11.50
19948;BMP180;10135;50.702;7.276;2023-04-03T10:27:06;100766.00;;;11.40
19948;BMP180;10135;50.702;7.276;2023-04-03T10:32:01;100759.00;;;11.50
19948;BMP180;10135;50.702;7.276;2023-04-03T10:34:39;100750.00;;;11.50
19948;BMP180;10135;50.702;7.276;2023-04-03T10:36:47;100758.00;;;11.60
19948;BMP180;10135;50.702;7.276;2023-04-03T10:41:59;100754.00;;;11.60
19948;BMP180;10135;50.702;7.276;2023-04-03T10:44:24;100759.00;;;11.70
19948;BMP180;10135;50.702;7.276;2023-04-03T10:46:38;100749.00;;;11.70
19948;BMP180;10135;50.702;7.276;2023-04-03T10:49:12;100744.00;;;11.80
19948;BMP180;10135;50.702;7.276;2023-04-03T10:56:13;100746.00;;;11.90
19948;BMP180;10135;50.702;7.276;2023-04-03T11:00:43;100732.00;;;12.00
19948;BMP180;10135;50.702;7.276;2023-04-03T11:02:54;100730.00;;;12.10
19948;BMP180;10135;50.702;7.276;2023-04-03T11:05:31;100727.00;;;12.10
19948;BMP180;10135;50.702;7.276;2023-04-03T11:07:43;100727.00;;;12.20
19948;BMP180;10135;50.702;7.276;2023-04-03T11:09:50;100719.00;;;12.30
19948;BMP180;10135;50.702;7.276;2023-04-03T11:12:00;100723.00;;;12.30
19948;BMP180;10135;50.702;7.276;2023-04-03T11:14:24;100716.00;;;12.40
19948;BMP180;10135;50.702;7.276;2023-04-03T11:16:29;100720.00;;;12.40
19948;BMP180;10135;50.702;7.276;2023-04-03T11:18:48;100714.00;;;12.40
19948;BMP180;10135;50.702;7.276;2023-04-03T11:21:07;100718.00;;;12.40
19948;BMP180;10135;50.702;7.276;2023-04-03T11:23:38;100721.00;;;12.40
19948;BMP180;10135;50.702;7.276;2023-04-03T11:25:42;100720.00;;;12.40
19948;BMP180;10135;50.702;7.276;2023-04-03T11:27:48;100711.00;;;12.40
19948;BMP180;10135;50.702;7.276;2023-04-03T11:29:53;100721.00;;;12.40
19948;BMP180;10135;50.702;7.276;2023-04-03T11:36:51;100714.00;;;12.40
19948;BMP180;10135;50.702;7.276;2023-04-03T11:39:01;100714.00;;;12.50
19948;BMP180;10135;50.702;7.276;2023-04-03T11:41:09;100713.00;;;12.50
19948;BMP180;10135;50.702;7.276;2023-04-03T11:43:27;100709.00;;;12.50
19948;BMP180;10135;50.702;7.276;2023-04-03T11:45:49;100702.00;;;12.50
19948;BMP180;10135;50.702;7.276;2023-04-03T11:48:51;100700.00;;;12.60
19948;BMP180;10135;50.702;7.276;2023-04-03T11:54:47;100699.00;;;12.70
19948;BMP180;10135;50.702;7.276;2023-04-03T11:56:48;100684.00;;;12.70
19948;BMP180;10135;50.702;7.276;2023-04-03T12:01:54;100686.00;;;12.90
19948;BMP180;10135;50.702;7.276;2023-04-03T12:04:08;100685.00;;;12.90
19948;BMP180;10135;50.702;7.276;2023-04-03T12:08:44;100688.00;;;12.90
19948;BMP180;10135;50.702;7.276;2023-04-03T12:13:17;100672.00;;;13.00
19948;BMP180;10135;50.702;7.276;2023-04-03T12:15:48;100665.00;;;13.00
19948;BMP180;10135;50.702;7.276;2023-04-03T12:17:49;100675.00;;;13.00
19948;BMP180;10135;50.702;7.276;2023-04-03T12:19:52;100675.00;;;13.10
19948;BMP180;10135;50.702;7.276;2023-04-03T12:24:23;100669.00;;;13.10
19948;BMP180;10135;50.702;7.276;2023-04-03T12:26:44;100666.00;;;13.10
19948;BMP180;10135;50.702;7.276;2023-04-03T12:28:48;100677.00;;;13.10
19948;BMP180;10135;50.702;7.276;2023-04-03T12:30:50;100662.00;;;13.10
19948;BMP180;10135;50.702;7.276;2023-04-03T12:33:38;100659.00;;;13.10
19948;BMP180;10135;50.702;7.276;2023-04-03T12:36:07;100665.00;;;13.00
19948;BMP180;10135;50.702;7.276;2023-04-03T12:39:04;100649.00;;;13.00
19948;BMP180;10135;50.702;7.276;2023-04-03T12:41:38;100659.00;;;12.90
19948;BMP180;10135;50.702;7.276;2023-04-03T12:44:15;100655.00;;;12.90
19948;BMP180;10135;50.702;7.276;2023-04-03T12:46:23;100655.00;;;12.90
19948;BMP180;10135;50.702;7.276;2023-04-03T12:48:28;100657.00;;;12.80
19948;BMP180;10135;50.702;7.276;2023-04-03T12:50:33;100662.00;;;12.80
19948;BMP180;10135;50.702;7.276;2023-04-03T12:52:55;100659.00;;;12.80
19948;BMP180;10135;50.702;7.276;2023-04-03T12:54:58;100651.00;;;12.90
19948;BMP180;10135;50.702;7.276;2023-04-03T12:57:26;100655.00;;;12.80
19948;BMP180;10135;50.702;7.276;2023-04-03T12:59:27;100645.00;;;12.90
19948;BMP180;10135;50.702;7.276;2023-04-03T13:01:28;100647.00;;;12.90
19948;BMP180;10135;50.702;7.276;2023-04-03T13:03:30;100643.00;;;13.00
19948;BMP180;10135;50.702;7.276;2023-04-03T13:05:32;100648.00;;;13.00
19948;BMP180;10135;50.702;7.276;2023-04-03T13:07:36;100647.00;;;13.00
19948;BMP180;10135;50.702;7.276;2023-04-03T13:09:39;100642.00;;;13.00
19948;BMP180;10135;50.702;7.276;2023-04-03T13:11:42;100646.00;;;13.10
19948;BMP180;10135;50.702;7.276;2023-04-03T13:14:05;100633.00;;;13.10
19948;BMP180;10135;50.702;7.276;2023-04-03T13:16:16;100636.00;;;13.20
19948;BMP180;10135;50.702;7.276;2023-04-03T13:18:35;100630.00;;;13.20
19948;BMP180;10135;50.702;7.276;2023-04-03T13:20:37;100630.00;;;13.30
19948;BMP180;10135;50.702;7.276;2023-04-03T13:23:02;100627.00;;;13.30
19948;BMP180;10135;50.702;7.276;2023-04-03T13:25:09;100617.00;;;13.30
19948;BMP180;10135;50.702;7.276;2023-04-03T13:27:12;100612.00;;;13.30
19948;BMP180;10135;50.702;7.276;2023-04-03T13:29:42;100624.00;;;13.30
19948;BMP180;10135;50.702;7.276;2023-04-03T13:31:43;100621.00;;;13.40
19948;BMP180;10135;50.702;7.276;2023-04-03T13:34:02;100626.00;;;13.40
19948;BMP180;10135;50.702;7.276;2023-04-03T13:36:20;100617.00;;;13.40
19948;BMP180;10135;50.702;7.276;2023-04-03T13:38:26;100609.00;;;13.40
19948;BMP180;10135;50.702;7.276;2023-04-03T13:40:27;100603.00;;;13.40
19948;BMP180;10135;50.702;7.276;2023-04-03T13:42:32;100605.00;;;13.40
19948;BMP180;10135;50.702;7.276;2023-04-03T13:44:36;100603.00;;;13.40
19948;BMP180;10135;50.702;7.276;2023-04-03T13:46:39;100600.00;;;13.40
19948;BMP180;10135;50.702;7.276;2023-04-03T13:48:47;100606.00;;;13.40
19948;BMP180;10135;50.702;7.276;2023-04-03T13:51:07;100597.00;;;13.40
19948;BMP180;10135;50.702;7.276;2023-04-03T13:53:17;100590.00;;;13.40
19948;BMP180;10135;50.702;7.276;2023-04-03T13:55:22;100596.00;;;13.40
19948;BMP180;10135;50.702;7.276;2023-04-03T13:57:24;100595.00;;;13.40
19948;BMP180;10135;50.702;7.276;2023-04-03T13:59:35;100583.00;;;13.40
19948;BMP180;10135;50.702;7.276;2023-04-03T14:01:55;100590.00;;;13.40
19948;BMP180;10135;50.702;7.276;2023-04-03T14:04:24;100594.00;;;13.40
19948;BMP180;10135;50.702;7.276;2023-04-03T14:06:26;100587.00;;;13.40
19948;BMP180;10135;50.702;7.276;2023-04-03T14:08:27;100586.00;;;13.40
19948;BMP180;10135;50.702;7.276;2023-04-03T14:10:29;100587.00;;;13.40
19948;BMP180;10135;50.702;7.276;2023-04-03T14:12:37;100587.00;;;13.40
19948;BMP180;10135;50.702;7.276;2023-04-03T14:14:40;100596.00;;;13.40
19948;BMP180;10135;50.702;7.276;2023-04-03T14:16:50;100575.00;;;13.40
19948;BMP180;10135;50.702;7.276;2023-04-03T14:18:52;100568.00;;;13.50
19948;BMP180;10135;50.702;7.276;2023-04-03T14:20:53;100568.00;;;13.50
19948;BMP180;10135;50.702;7.276;2023-04-03T14:22:54;100564.00;;;13.50
19948;BMP180;10135;50.702;7.276;2023-04-03T14:24:56;100566.00;;;13.50
19948;BMP180;10135;50.702;7.276;2023-04-03T14:26:57;100558.00;;;13.50
19948;BMP180;10135;50.702;7.276;2023-04-03T14:28:58;100567.00;;;13.50
19948;BMP180;10135;50.702;7.276;2023-04-03T14:30:58;100561.00;;;13.50
19948;BMP180;10135;50.702;7.276;2023-04-03T14:33:00;100563.00;;;13.50
19948;BMP180;10135;50.702;7.276;2023-04-03T14:35:01;100552.00;;;13.50
19948;BMP180;10135;50.702;7.276;2023-04-03T14:37:02;100550.00;;;13.50
19948;BMP180;10135;50.702;7.276;2023-04-03T14:39:07;100549.00;;;13.50
19948;BMP180;10135;50.702;7.276;2023-04-03T14:41:12;100560.00;;;13.50
19948;BMP180;10135;50.702;7.276;2023-04-03T14:43:13;100554.00;;;13.50
19948;BMP180;10135;50.702;7.276;2023-04-03T14:45:14;100546.00;;;13.40
19948;BMP180;10135;50.702;7.276;2023-04-03T14:47:21;100557.00;;;13.40
19948;BMP180;10135;50.702;7.276;2023-04-03T14:49:28;100554.00;;;13.40
19948;BMP180;10135;50.702;7.276;2023-04-03T14:51:29;100554.00;;;13.40
19948;BMP180;10135;50.702;7.276;2023-04-03T14:53:30;100550.00;;;13.30
19948;BMP180;10135;50.702;7.276;2023-04-03T14:55:32;100543.00;;;13.30
19948;BMP180;10135;50.702;7.276;2023-04-03T14:57:34;100544.00;;;13.30
19948;BMP180;10135;50.702;7.276;2023-04-03T14:59:35;100546.00;;;13.20
19948;BMP180;10135;50.702;7.276;2023-04-03T15:01:35;100544.00;;;13.20
19948;BMP180;10135;50.702;7.276;2023-04-03T15:03:36;100548.00;;;13.20
19948;BMP180;10135;50.702;7.276;2023-04-03T15:05:37;100543.00;;;13.20
19948;BMP180;10135;50.702;7.276;2023-04-03T15:07:41;100535.00;;;13.10
19948;BMP180;10135;50.702;7.276;2023-04-03T15:09:42;100535.00;;;13.10
19948;BMP180;10135;50.702;7.276;2023-04-03T15:11:43;100536.00;;;13.10
19948;BMP180;10135;50.702;7.276;2023-04-03T15:13:43;100532.00;;;13.10
19948;BMP180;10135;50.702;7.276;2023-04-03T15:15:44;100530.00;;;13.10
19948;BMP180;10135;50.702;7.276;2023-04-03T15:17:48;100527.00;;;13.20
19948;BMP180;10135;50.702;7.276;2023-04-03T15:19:50;100538.00;;;13.20
19948;BMP180;10135;50.702;7.276;2023-04-03T15:21:51;100529.00;;;13.20
19948;BMP180;10135;50.702;7.276;2023-04-03T15:23:51;100537.00;;;13.20
19948;BMP180;10135;50.702;7.276;2023-04-03T15:25:53;100529.00;;;13.10
19948;BMP180;10135;50.702;7.276;2023-04-03T15:27:55;100530.00;;;13.10
19948;BMP180;10135;50.702;7.276;2023-04-03T15:29:56;100526.00;;;13.10
19948;BMP180;10135;50.702;7.276;2023-04-03T15:31:57;100532.00;;;13.10
19948;BMP180;10135;50.702;7.276;2023-04-03T15:33:58;100520.00;;;13.10
19948;BMP180;10135;50.702;7.276;2023-04-03T15:35:59;100526.00;;;13.10
19948;BMP180;10135;50.702;7.276;2023-04-03T15:37:59;100530.00;;;13.10
19948;BMP180;10135;50.702;7.276;2023-04-03T15:40:00;100530.00;;;13.10
19948;BMP180;10135;50.702;7.276;2023-04-03T15:42:01;100529.00;;;13.10
19948;BMP180;10135;50.702;7.276;2023-04-03T15:44:06;100527.00;;;13.00
19948;BMP180;10135;50.702;7.276;2023-04-03T15:46:06;100524.00;;;13.00
19948;BMP180;10135;50.702;7.276;2023-04-03T15:48:09;100523.00;;;13.00
19948;BMP180;10135;50.702;7.276;2023-04-03T15:50:10;100531.00;;;13.00
19948;BMP180;10135;50.702;7.276;2023-04-03T15:52:10;100525.00;;;13.00
19948;BMP180;10135;50.702;7.276;2023-04-03T15:54:12;100523.00;;;13.00
19948;BMP180;10135;50.702;7.276;2023-04-03T15:56:12;100527.00;;;13.00
19948;BMP180;10135;50.702;7.276;2023-04-03T15:58:13;100521.00;;;13.00
19948;BMP180;10135;50.702;7.276;2023-04-03T16:00:14;100520.00;;;13.00
19948;BMP180;10135;50.702;7.276;2023-04-03T16:02:16;100517.00;;;13.00
19948;BMP180;10135;50.702;7.276;2023-04-03T16:04:17;100519.00;;;13.00
19948;BMP180;10135;50.702;7.276;2023-04-03T16:06:18;100532.00;;;12.90
19948;BMP180;10135;50.702;7.276;2023-04-03T16:08:19;100537.00;;;12.90
19948;BMP180;10135;50.702;7.276;2023-04-03T16:10:20;100535.00;;;12.90
19948;BMP180;10135;50.702;7.276;2023-04-03T16:12:21;100537.00;;;12.90
19948;BMP180;10135;50.702;7.276;2023-04-03T16:14:22;100542.00;;;12.90
19948;BMP180;10135;50.702;7.276;2023-04-03T16:16:24;100545.00;;;12.80
19948;BMP180;10135;50.702;7.276;2023-04-03T16:18:27;100535.00;;;12.80
19948;BMP180;10135;50.702;7.276;2023-04-03T16:20:28;100552.00;;;12.80
19948;BMP180;10135;50.702;7.276;2023-04-03T16:22:29;100539.00;;;12.80
19948;BMP180;10135;50.702;7.276;2023-04-03T16:24:30;100549.00;;;12.80
19948;BMP180;10135;50.702;7.276;2023-04-03T16:26:32;100545.00;;;12.80
19948;BMP180;10135;50.702;7.276;2023-04-03T16:28:33;100545.00;;;12.80
19948;BMP180;10135;50.702;7.276;2023-04-03T16:30:33;100547.00;;;12.70
19948;BMP180;10135;50.702;7.276;2023-04-03T16:32:35;100550.00;;;12.70
19948;BMP180;10135;50.702;7.276;2023-04-03T16:34:37;100547.00;;;12.70
19948;BMP180;10135;50.702;7.276;2023-04-03T16:36:38;100540.00;;;12.70
19948;BMP180;10135;50.702;7.276;2023-04-03T16:38:38;100537.00;;;12.70
19948;BMP180;10135;50.702;7.276;2023-04-03T16:40:39;100544.00;;;12.70
19948;BMP180;10135;50.702;7.276;2023-04-03T16:42:40;100536.00;;;12.70
19948;BMP180;10135;50.702;7.276;2023-04-03T16:44:41;100547.00;;;12.60
19948;BMP180;10135;50.702;7.276;2023-04-03T16:46:41;100543.00;;;12.60
19948;BMP180;10135;50.702;7.276;2023-04-03T16:48:42;100546.00;;;12.60
19948;BMP180;10135;50.702;7.276;2023-04-03T16:50:47;100547.00;;;12.60
19948;BMP180;10135;50.702;7.276;2023-04-03T16:52:53;100544.00;;;12.50
19948;BMP180;10135;50.702;7.276;2023-04-03T16:54:54;100549.00;;;12.50
19948;BMP180;10135;50.702;7.276;2023-04-03T16:56:56;100550.00;;;12.50
19948;BMP180;10135;50.702;7.276;2023-04-03T16:58:56;100550.00;;;12.50
19948;BMP180;10135;50.702;7.276;2023-04-03T17:00:57;100554.00;;;12.40
19948;BMP180;10135;50.702;7.276;2023-04-03T17:02:58;100556.00;;;12.40
19948;BMP180;10135;50.702;7.276;2023-04-03T17:04:58;100552.00;;;12.40
19948;BMP180;10135;50.702;7.276;2023-04-03T17:07:00;100553.00;;;12.40
19948;BMP180;10135;50.702;7.276;2023-04-03T17:09:06;100551.00;;;12.30
19948;BMP180;10135;50.702;7.276;2023-04-03T17:11:06;100553.00;;;12.30
19948;BMP180;10135;50.702;7.276;2023-04-03T17:13:07;100559.00;;;12.30
19948;BMP180;10135;50.702;7.276;2023-04-03T17:15:09;100551.00;;;12.30
19948;BMP180;10135;50.702;7.276;2023-04-03T17:17:10;100557.00;;;12.30
19948;BMP180;10135;50.702;7.276;2023-04-03T17:19:10;100554.00;;;12.30
19948;BMP180;10135;50.702;7.276;2023-04-03T17:21:13;100555.00;;;12.20
19948;BMP180;10135;50.702;7.276;2023-04-03T17:23:14;100559.00;;;12.20
19948;BMP180;10135;50.702;7.276;2023-04-03T17:25:15;100555.00;;;12.20
19948;BMP180;10135;50.702;7.276;2023-04-03T17:27:16;100558.00;;;12.10
19948;BMP180;10135;50.702;7.276;2023-04-03T17:29:16;100556.00;;;12.10
19948;BMP180;10135;50.702;7.276;2023-04-03T17:31:17;100563.00;;;12.10
19948;BMP180;10135;50.702;7.276;2023-04-03T17:33:18;100555.00;;;12.00
19948;BMP180;10135;50.702;7.276;2023-04-03T17:35:19;100562.00;;;12.00
19948;BMP180;10135;50.702;7.276;2023-04-03T17:37:20;100557.00;;;11.90
19948;BMP180;10135;50.702;7.276;2023-04-03T17:39:20;100566.00;;;11.90
19948;BMP180;10135;50.702;7.276;2023-04-03T17:41:21;100561.00;;;11.80
19948;BMP180;10135;50.702;7.276;2023-04-03T17:43:23;100562.00;;;11.80
19948;BMP180;10135;50.702;7.276;2023-04-03T17:45:23;100559.00;;;11.70